"WATCHING THE WEATHER TO PROTECT LIFE AND PROPERTY"


Aviation
Satellite (InfraRed)


KFLL 250253Z 27009KT 10SM CLR 23/17 A2980 RMK AO2 SLP089 T02280167 51018
KMCO 250253Z 28010KT 10SM BKN032 19/14 A2977 RMK AO2 SLP078 T01940139 51017
KMIA 250253Z 26007KT 10SM CLR 23/17 A2982 RMK AO2 SLP097 T02330172 51020
KTPA 250253Z 29011KT 10SM OVC041 21/11 A2981 RMK AO2 SLP093 T02060106 53019
MDPP 250300Z 00000KT 9999 SCT018 BKN070 25/24 Q1011
MDSD 250300Z 17006KT 9999 FEW012CB BKN014 BKN070 25/24 Q1013 RETSRA CB/SE/N
MKJS 250300Z VRB02KT 9999 FEW022 28/23 Q1011
MTPP 250100Z 08010KT 8000 FEW020 25/34 Q1010 A2985
MUHA 250255Z 33007KT 300V010 9000 SCT020 25/19 Q1012
MYNN 250300Z 00000KT 9999 FEW020 23/22 A2982
TAPA 250300Z 10011KT 9999 VCSH FEW018 BKN034 25/23 Q1015 NOSIG
TFFF 250330Z AUTO 11011KT 9999 -RA SCT022 BKN030 BKN040 26/23 Q1014 TEMPO 4000 SHRA SCT015TCU
TFFR 250330Z AUTO 12006KT CAVOK 26/22 Q1014 TEMPO 4000 SHRA SCT015TCU
TIST 250253Z 12014KT 10SM SCT019 BKN027 26/24 A2996 RMK AO2 SLP146 T02610244 53014
TISX 250321Z 11009KT 10SM SCT015 27/ A2996 RMK AO2 T0267 $
TJSJ 250256Z 00000KT 10SM FEW025 SCT048 28/24 A2996 RMK AO2 SLP144 T02830244 50022
TKPK 250200Z 09013KT 9999 SCT016 26/23 Q1015
TNCA 250300Z 10011KT 7000 FEW018 28/25 Q1010 NOSIG
TNCB 250255Z AUTO 09015KT 9999 FEW012/// 27/24 Q1010
TNCC 250300Z 11010KT 9999 FEW017 27/24 Q1011 NOSIG
TNCE 250255Z AUTO 09011KT 050V120 //// // ///////// 26/23 Q1014 RE//
TNCM 250300Z 10011KT 9999 FEW018 26/24 Q1015 A2997
TQPF 242100Z 11015KT 9999 SCT020 27/22 Q1014
TUPJ 250200Z 11013KT 9999 SCT017 27/22 Q1014